logo
Search for airport 
image banner adimage banner adimage banner ad
image banner ad

YKBL - Kambalda

Located in Kambalda, Australia

ICAO - YKBL, IATA - KDB

Data provided by Airmate  

General information

Coordinates: S31°11'24" E121°35'52"
Elevation is 1059 feet MSL.
Magnetic variation is 1° East
View others Airports in Western Australia

Operational data

Special qualification required
Current time UTC:
Current local time:
Weather at : YPKG - Kalgoorlie-Boulder ( 46 km )
METAR: YPKG 290930Z AUTO 32008KT 9999 // NCD 35/M01 Q1012 RF00.0/000.0
TAF: TAF AMD YPKG 290651Z 2906/3006 34016KT CAVOK FM290800 29010KT CAVOK FM291300 25008KT CAVOK FM292300 25008KT 9999 SCT025 FM300200 24010KT CAVOK
View NOTAMs / SUP AIP / TFR affecting this airport [VIEW]
Communications frequencies: [VIEW]

Runways:

RWY identifierQFULength (ft)Width (ft)SurfaceLDA (ft)
16164°590598X
34344°590598X

Airport contact information

Address: Kambalda Australia

Satellite view of YKBL